Time;durP1;ratioP1;P1;durP2;ratioP2;P2;SDS_P1;SDS_P2;PMS_P1;PMS_P2;Temp;Humidity;BMP_temperature;BMP_pressure;BME280_temperature;BME280_humidity;BME280_pressure;Samples;Min_cycle;Max_cycle;Signal;HPM_P1;HPM_P2
2022/08/07 00:00:53;;;;;;;11.00;8.88;;;22.70;99.90;;;;;;5111119;28;19915;-76
2022/08/07 00:03:18;;;;;;;10.40;9.23;;;22.70;99.90;;;;;;5109759;28;20392;-75
2022/08/07 00:05:44;;;;;;;11.63;9.63;;;22.70;99.90;;;;;;5111029;28;20069;-75
2022/08/07 00:08:10;;;;;;;10.73;9.33;;;22.70;99.90;;;;;;5111235;28;20093;-74
2022/08/07 00:10:35;;;;;;;10.60;8.27;;;22.60;99.90;;;;;;5111178;28;20427;-76
2022/08/07 00:13:04;;;;;;;11.68;9.35;;;22.60;99.90;;;;;;5110499;28;20038;-74
2022/08/07 00:15:31;;;;;;;10.02;8.25;;;22.60;99.90;;;;;;5111519;28;20469;-75
2022/08/07 00:17:57;;;;;;;8.90;7.78;;;22.60;99.90;;;;;;5110822;28;20063;-74
2022/08/07 00:20:23;;;;;;;8.83;7.77;;;22.70;99.90;;;;;;5110947;28;20458;-75
2022/08/07 00:22:48;;;;;;;10.40;8.27;;;22.70;99.90;;;;;;5110735;28;20402;-73
2022/08/07 00:25:14;;;;;;;11.00;7.87;;;22.70;99.90;;;;;;5111130;28;20036;-74
2022/08/07 00:27:40;;;;;;;10.10;8.13;;;22.70;99.90;;;;;;5110668;28;20319;-74
2022/08/07 00:30:06;;;;;;;10.80;8.17;;;22.70;99.90;;;;;;5110804;28;20019;-74
2022/08/07 00:32:32;;;;;;;9.23;8.02;;;22.70;99.90;;;;;;5109343;28;20514;-75
2022/08/07 00:34:57;;;;;;;9.27;7.40;;;22.70;99.90;;;;;;5109570;28;20043;-77
2022/08/07 00:37:24;;;;;;;9.53;7.53;;;22.70;99.90;;;;;;5110737;28;20028;-76
2022/08/07 00:39:52;;;;;;;10.55;8.00;;;22.70;99.90;;;;;;5109708;28;20386;-75
2022/08/07 00:42:19;;;;;;;9.98;7.40;;;22.70;99.90;;;;;;5110709;28;20427;-75
2022/08/07 00:44:45;;;;;;;11.10;8.23;;;22.70;99.90;;;;;;5110904;28;20071;-73
2022/08/07 00:47:11;;;;;;;8.80;7.47;;;22.70;99.90;;;;;;5110788;28;20536;-75
2022/08/07 00:49:36;;;;;;;10.57;7.90;;;22.70;99.90;;;;;;5109631;28;20028;-74
2022/08/07 00:52:05;;;;;;;9.20;7.87;;;22.60;99.90;;;;;;5110591;28;20080;-74
2022/08/07 00:54:31;;;;;;;10.30;7.82;;;22.60;99.90;;;;;;5110938;28;20144;-75
2022/08/07 00:56:57;;;;;;;8.87;7.80;;;22.50;99.90;;;;;;5110648;28;20062;-74
2022/08/07 00:59:23;;;;;;;8.73;7.57;;;22.50;99.90;;;;;;5110880;28;20038;-74
2022/08/07 01:01:49;;;;;;;9.37;7.80;;;22.50;99.90;;;;;;5110385;28;20035;-75
2022/08/07 01:04:15;;;;;;;;;;;22.50;99.90;;;;;;5111475;28;20050;-74
2022/08/07 01:06:41;;;;;;;9.85;8.48;;;22.40;99.90;;;;;;5110559;28;19994;-73
2022/08/07 01:09:07;;;;;;;10.00;8.37;;;22.40;99.90;;;;;;5110727;28;20044;-74
2022/08/07 01:11:33;;;;;;;11.10;8.55;;;22.30;99.90;;;;;;5109301;28;20252;-75
2022/08/07 01:14:00;;;;;;;10.75;8.57;;;22.30;99.90;;;;;;5110460;28;20044;-75
2022/08/07 01:16:26;;;;;;;10.10;8.27;;;22.20;99.90;;;;;;5110833;28;20019;-75
2022/08/07 01:18:53;;;;;;;8.98;7.63;;;22.30;99.90;;;;;;5110443;28;20043;-75
2022/08/07 01:21:20;;;;;;;10.48;8.57;;;22.30;99.90;;;;;;5110364;28;20168;-74
2022/08/07 01:23:47;;;;;;;10.25;7.78;;;22.20;99.90;;;;;;5109491;28;20035;-75
2022/08/07 01:26:15;;;;;;;10.68;8.30;;;22.10;99.90;;;;;;5112911;28;20084;-75
2022/08/07 01:28:45;;;;;;;9.50;8.50;;;22.20;99.90;;;;;;5114470;28;20560;-75
2022/08/07 01:31:11;;;;;;;9.40;7.88;;;22.20;99.90;;;;;;5114033;28;20076;-75
2022/08/07 01:33:37;;;;;;;10.65;8.00;;;22.20;99.90;;;;;;5114414;28;20035;-75
2022/08/07 01:36:03;;;;;;;10.90;8.43;;;22.20;99.90;;;;;;5113161;28;20035;-75
2022/08/07 01:38:29;;;;;;;11.13;7.55;;;22.20;99.90;;;;;;5112751;28;20300;-74
2022/08/07 01:41:00;;;;;;;8.85;7.72;;;22.20;99.90;;;;;;5112601;28;20019;-76
2022/08/07 01:43:28;;;;;;;9.73;7.85;;;22.20;99.90;;;;;;5113741;28;20063;-75
2022/08/07 01:45:54;;;;;;;9.65;8.38;;;22.20;99.90;;;;;;5112326;28;20076;-75
2022/08/07 01:48:20;;;;;;;;;;;22.20;99.90;;;;;;5114463;28;20046;-76
2022/08/07 01:50:51;;;;;;;11.70;9.07;;;22.10;99.90;;;;;;5113833;28;19904;-75
2022/08/07 01:53:20;;;;;;;11.07;9.05;;;22.10;99.90;;;;;;5113776;28;20039;-75
2022/08/07 01:55:49;;;;;;;10.02;8.27;;;22.00;99.90;;;;;;5113831;28;20043;-74
2022/08/07 01:58:20;;;;;;;10.90;8.90;;;22.00;99.90;;;;;;5112108;28;20067;-74
2022/08/07 02:00:54;;;;;;;11.02;8.52;;;21.90;99.90;;;;;;5112175;28;20393;-74
2022/08/07 02:03:21;;;;;;;10.77;8.93;;;22.00;99.90;;;;;;5112161;28;20039;-75
2022/08/07 02:05:53;;;;;;;11.68;8.85;;;21.90;99.90;;;;;;5113811;28;20466;-75
2022/08/07 02:08:22;;;;;;;10.38;8.88;;;21.90;99.90;;;;;;5113585;28;20032;-74
2022/08/07 02:10:52;;;;;;;12.35;9.77;;;21.80;99.90;;;;;;5112324;28;20349;-75
2022/08/07 02:13:20;;;;;;;10.93;9.65;;;21.80;99.90;;;;;;5112309;28;20257;-75
2022/08/07 02:15:49;;;;;;;10.40;8.55;;;21.80;99.90;;;;;;5112033;28;20506;-75
2022/08/07 02:18:15;;;;;;;12.98;9.57;;;21.70;99.90;;;;;;5111757;28;20036;-73
2022/08/07 02:20:42;;;;;;;11.88;8.93;;;21.70;99.90;;;;;;5111620;28;20031;-73
2022/08/07 02:23:10;;;;;;;13.02;9.70;;;21.70;99.90;;;;;;5111640;28;20085;-75
2022/08/07 02:25:38;;;;;;;11.50;8.57;;;21.60;99.90;;;;;;5112863;28;20039;-73
2022/08/07 02:28:06;;;;;;;11.07;9.10;;;21.70;99.90;;;;;;5112869;28;20038;-74
2022/08/07 02:30:34;;;;;;;10.77;9.13;;;21.70;99.90;;;;;;5112966;28;20023;-74
2022/08/07 02:33:01;;;;;;;10.43;8.15;;;21.70;99.90;;;;;;5112841;28;20027;-74
2022/08/07 02:35:27;;;;;;;9.93;8.40;;;21.60;99.90;;;;;;5112037;28;20102;-74
2022/08/07 02:37:56;;;;;;;10.77;8.68;;;21.70;99.90;;;;;;5112719;28;20123;-74
2022/08/07 02:40:23;;;;;;;10.18;8.00;;;21.70;99.90;;;;;;5112799;28;20032;-74
2022/08/07 02:42:50;;;;;;;11.27;8.68;;;21.70;99.90;;;;;;5112814;28;20437;-73
2022/08/07 02:45:16;;;;;;;;;;;21.70;99.90;;;;;;5112918;28;20422;-74
2022/08/07 02:47:42;;;;;;;9.93;8.10;;;21.70;99.90;;;;;;5112462;28;20160;-75
2022/08/07 02:50:08;;;;;;;11.10;9.23;;;21.70;99.90;;;;;;5112391;28;20036;-75
2022/08/07 02:52:40;;;;;;;10.40;8.95;;;21.70;99.90;;;;;;5112395;28;20107;-75
2022/08/07 02:55:20;;;;;;;12.48;9.77;;;21.70;99.90;;;;;;5110867;28;20048;-74
2022/08/07 02:57:46;;;;;;;12.07;9.65;;;21.70;99.90;;;;;;5112623;28;20069;-74
2022/08/07 03:00:13;;;;;;;11.40;10.07;;;21.80;99.90;;;;;;5112642;28;20031;-75
2022/08/07 03:02:40;;;;;;;;;;;21.80;99.90;;;;;;5112437;28;20034;-74
2022/08/07 03:05:07;;;;;;;10.95;9.43;;;21.80;99.90;;;;;;5112278;28;19919;-75
2022/08/07 03:07:33;;;;;;;11.90;9.98;;;21.90;99.90;;;;;;5112207;28;20034;-75
2022/08/07 03:10:00;;;;;;;12.50;10.68;;;21.90;99.90;;;;;;5110945;28;20205;-75
2022/08/07 03:12:27;;;;;;;11.55;9.68;;;21.90;99.90;;;;;;5110878;28;20506;-77
2022/08/07 03:14:55;;;;;;;14.15;10.90;;;21.90;99.90;;;;;;5110868;28;20028;-74
2022/08/07 03:17:21;;;;;;;12.45;10.27;;;22.00;99.90;;;;;;5110621;28;20054;-74
2022/08/07 03:19:47;;;;;;;13.73;11.25;;;22.00;99.90;;;;;;5112406;28;20047;-76
2022/08/07 03:22:14;;;;;;;11.90;9.80;;;22.10;99.90;;;;;;5112283;28;20128;-76
2022/08/07 03:24:39;;;;;;;12.50;10.02;;;22.10;99.90;;;;;;5112132;28;20391;-75
2022/08/07 03:27:07;;;;;;;11.73;10.43;;;22.10;99.90;;;;;;5110422;28;20019;-74
2022/08/07 03:29:45;;;;;;;11.90;10.65;;;22.20;99.90;;;;;;5111985;28;20467;-75
2022/08/07 03:32:13;;;;;;;11.30;10.10;;;22.20;99.90;;;;;;5111505;27;20038;-75
2022/08/07 03:34:41;;;;;;;12.43;10.95;;;22.20;99.90;;;;;;5112051;28;20043;-74
2022/08/07 03:37:09;;;;;;;14.85;10.48;;;22.30;99.90;;;;;;5110119;28;20023;-73
2022/08/07 03:39:35;;;;;;;12.93;10.48;;;22.30;99.90;;;;;;5112018;28;20032;-74
2022/08/07 03:42:04;;;;;;;12.73;10.48;;;22.30;99.90;;;;;;5111446;28;20509;-75
2022/08/07 03:44:35;;;;;;;13.63;11.25;;;22.30;99.90;;;;;;5111051;28;20085;-75
2022/08/07 03:47:02;;;;;;;12.45;11.13;;;22.30;99.90;;;;;;5111456;28;20051;-74
2022/08/07 03:49:29;;;;;;;13.85;10.85;;;22.40;99.90;;;;;;5110349;28;20023;-75
2022/08/07 03:51:56;;;;;;;14.50;11.20;;;22.50;99.90;;;;;;5110156;28;20483;-74
2022/08/07 03:54:21;;;;;;;12.25;10.52;;;22.50;99.90;;;;;;5111202;28;20031;-74
2022/08/07 03:56:49;;;;;;;15.10;12.50;;;22.50;99.90;;;;;;5111371;28;20364;-75
2022/08/07 03:59:15;;;;;;;15.85;13.15;;;22.60;99.90;;;;;;5111527;28;20463;-75
2022/08/07 04:01:42;;;;;;;17.07;13.37;;;22.60;99.90;;;;;;5111012;28;20111;-73
2022/08/07 04:04:09;;;;;;;15.55;13.43;;;22.60;99.90;;;;;;5111460;28;20424;-74
2022/08/07 04:06:42;;;;;;;18.38;12.77;;;22.60;99.90;;;;;;5111198;28;20016;-74
2022/08/07 04:09:08;;;;;;;15.77;13.82;;;22.60;99.90;;;;;;5111055;28;20536;-75
2022/08/07 04:11:35;;;;;;;16.10;14.18;;;22.70;99.90;;;;;;5111135;28;20043;-74
2022/08/07 04:14:02;;;;;;;18.33;15.10;;;22.70;99.90;;;;;;5111257;28;20103;-76
2022/08/07 04:16:28;;;;;;;17.42;15.05;;;22.70;99.90;;;;;;5111178;28;20028;-74
2022/08/07 04:18:53;;;;;;;17.98;15.52;;;22.70;99.90;;;;;;5109781;28;20510;-74
2022/08/07 04:21:19;;;;;;;18.43;15.60;;;22.70;99.90;;;;;;5111114;28;20058;-74
2022/08/07 04:23:46;;;;;;;18.23;14.75;;;22.70;99.90;;;;;;5111255;28;20028;-75
2022/08/07 04:26:12;;;;;;;17.00;14.43;;;22.70;99.90;;;;;;5109534;28;20036;-73
2022/08/07 04:28:39;;;;;;;21.35;16.05;;;22.70;99.90;;;;;;5111253;28;20543;-75
2022/08/07 04:31:05;;;;;;;17.33;14.52;;;22.80;99.90;;;;;;5111068;28;20509;-75
2022/08/07 04:33:32;;;;;;;17.55;14.82;;;22.80;99.90;;;;;;5109809;28;20031;-74
2022/08/07 04:35:58;;;;;;;16.38;14.20;;;22.90;99.90;;;;;;5109519;28;20042;-75
2022/08/07 04:38:24;;;;;;;16.25;14.07;;;22.90;99.90;;;;;;5111311;28;20039;-74
2022/08/07 04:40:50;;;;;;;;;;;22.90;99.90;;;;;;5111561;28;20479;-74
2022/08/07 04:43:19;;;;;;;16.73;13.18;;;22.90;99.90;;;;;;5111006;28;19915;-74
2022/08/07 04:45:57;;;;;;;17.13;12.90;;;22.90;99.90;;;;;;5109368;28;20090;-75
2022/08/07 04:48:45;;;;;;;16.65;13.75;;;23.00;99.90;;;;;;5109601;28;20047;-75
2022/08/07 04:51:29;;;;;;;15.75;13.85;;;23.00;99.90;;;;;;5110952;28;20031;-74
2022/08/07 04:54:24;;;;;;;13.57;12.15;;;23.10;99.90;;;;;;5109424;28;20031;-75
2022/08/07 04:57:01;;;;;;;13.90;11.68;;;23.10;99.90;;;;;;5096714;28;20048;-76
2022/08/07 04:59:39;;;;;;;14.57;12.88;;;23.20;99.90;;;;;;5111148;28;20032;-75
2022/08/07 05:02:31;;;;;;;15.50;12.45;;;23.30;99.90;;;;;;5113278;28;20038;-76
2022/08/07 05:05:25;;;;;;;13.85;11.75;;;23.40;99.90;;;;;;5114185;28;20036;-75
2022/08/07 05:08:04;;;;;;;15.02;13.27;;;23.50;99.90;;;;;;5113510;28;20024;-75
2022/08/07 05:10:38;;;;;;;12.48;11.05;;;23.50;99.90;;;;;;5113505;28;20024;-75
2022/08/07 05:13:13;;;;;;;13.93;12.45;;;23.60;99.90;;;;;;5113241;28;20032;-75
2022/08/07 05:15:43;;;;;;;14.45;11.35;;;23.70;99.90;;;;;;5114549;28;20059;-76
2022/08/07 05:18:17;;;;;;;17.05;13.07;;;23.70;99.90;;;;;;5113199;28;20035;-75
2022/08/07 05:20:47;;;;;;;15.05;12.82;;;23.80;99.90;;;;;;5114480;28;20031;-75
2022/08/07 05:23:20;;;;;;;17.45;12.85;;;23.90;99.90;;;;;;5113017;28;20036;-75
2022/08/07 05:25:47;;;;;;;14.15;12.68;;;24.00;99.90;;;;;;5112966;28;20496;-76
2022/08/07 05:28:14;;;;;;;15.77;13.40;;;24.10;99.90;;;;;;5114476;28;20032;-76
2022/08/07 05:30:41;;;;;;;16.42;13.95;;;24.10;99.90;;;;;;5114457;28;20507;-76
2022/08/07 05:33:08;;;;;;;16.08;12.45;;;24.00;99.90;;;;;;5114202;28;20073;-75
2022/08/07 05:35:36;;;;;;;14.93;12.90;;;24.00;99.90;;;;;;5114395;28;20038;-76
2022/08/07 05:38:05;;;;;;;16.40;13.30;;;24.00;99.90;;;;;;5114002;28;20027;-74
2022/08/07 05:40:32;;;;;;;13.88;11.35;;;24.10;99.90;;;;;;5113953;28;20068;-75
2022/08/07 05:42:58;;;;;;;16.75;13.07;;;24.10;99.90;;;;;;5114179;28;20027;-75
2022/08/07 05:45:28;;;;;;;14.55;12.70;;;24.20;99.90;;;;;;5113931;28;20026;-75
2022/08/07 05:47:56;;;;;;;15.48;13.13;;;24.20;99.90;;;;;;5112564;28;20492;-75
2022/08/07 05:50:22;;;;;;;15.07;13.48;;;24.20;99.90;;;;;;5113867;28;20430;-75
2022/08/07 05:52:48;;;;;;;15.98;14.27;;;24.30;99.90;;;;;;5113966;27;20038;-76
2022/08/07 05:55:14;;;;;;;16.80;13.57;;;24.30;99.90;;;;;;5095340;28;20059;-75
2022/08/07 05:57:41;;;;;;;16.90;14.73;;;24.20;99.90;;;;;;5113628;28;20047;-74
2022/08/07 06:00:08;;;;;;;14.90;13.25;;;24.30;99.90;;;;;;5113703;28;20311;-77
2022/08/07 06:02:35;;;;;;;14.95;13.05;;;24.30;99.90;;;;;;5113948;28;20066;-75
2022/08/07 06:05:11;;;;;;;17.45;13.63;;;24.30;99.90;;;;;;5113542;28;20090;-75
2022/08/07 06:07:36;;;;;;;18.33;14.50;;;24.30;99.90;;;;;;5112129;28;20078;-75
2022/08/07 06:10:03;;;;;;;16.23;14.47;;;24.40;99.90;;;;;;5111783;28;20051;-75
2022/08/07 06:12:29;;;;;;;16.77;13.63;;;24.40;99.90;;;;;;5112741;28;20391;-74
2022/08/07 06:14:57;;;;;;;16.63;13.57;;;24.50;99.90;;;;;;5111990;28;20028;-74
2022/08/07 06:17:24;;;;;;;14.68;12.93;;;24.60;99.90;;;;;;5113487;28;20491;-75
2022/08/07 06:19:50;;;;;;;14.65;12.32;;;24.60;99.90;;;;;;5111891;28;20035;-76
2022/08/07 06:22:18;;;;;;;16.20;13.95;;;24.70;99.90;;;;;;5113158;28;20040;-76
2022/08/07 06:24:44;;;;;;;17.60;14.75;;;24.80;99.90;;;;;;5111913;28;20054;-75
2022/08/07 06:27:18;;;;;;;16.38;13.45;;;24.80;99.90;;;;;;5111568;28;20038;-74
2022/08/07 06:29:43;;;;;;;17.60;14.27;;;24.80;99.90;;;;;;5111613;28;20390;-74
2022/08/07 06:32:09;;;;;;;17.30;14.37;;;24.90;99.90;;;;;;5111662;28;20054;-77
2022/08/07 06:34:35;;;;;;;15.70;12.87;;;24.90;99.90;;;;;;5112834;28;20081;-75
2022/08/07 06:37:00;;;;;;;14.07;12.57;;;25.00;99.90;;;;;;5113103;28;20111;-75
2022/08/07 06:39:26;;;;;;;14.67;13.10;;;25.00;99.90;;;;;;5113153;28;20020;-74
2022/08/07 06:42:03;;;;;;;15.10;13.13;;;25.00;99.90;;;;;;5112538;27;20479;-74
2022/08/07 06:44:30;;;;;;;13.00;11.52;;;25.10;99.90;;;;;;5111278;28;20110;-74
2022/08/07 06:46:56;;;;;;;12.32;11.02;;;25.20;99.90;;;;;;5112683;28;20047;-74
2022/08/07 06:49:22;;;;;;;12.50;10.00;;;25.20;99.90;;;;;;5112808;28;20023;-74
2022/08/07 06:51:47;;;;;;;11.90;10.67;;;25.30;99.90;;;;;;5111163;28;20134;-75
2022/08/07 06:54:16;;;;;;;11.55;10.05;;;25.30;99.90;;;;;;5111203;28;20115;-75
2022/08/07 06:56:45;;;;;;;12.55;10.65;;;25.30;99.90;;;;;;5112454;28;20502;-75
2022/08/07 06:59:14;;;;;;;11.02;9.70;;;25.40;99.90;;;;;;5112193;28;20047;-74
2022/08/07 07:01:41;;;;;;;12.65;10.45;;;25.90;99.90;;;;;;5112371;28;20379;-75
2022/08/07 07:04:08;;;;;;;12.27;10.40;;;25.40;99.90;;;;;;5112036;28;20034;-74
2022/08/07 07:06:34;;;;;;;11.32;10.07;;;25.40;99.90;;;;;;5112168;28;20020;-74
2022/08/07 07:09:21;;;;;;;10.32;9.23;;;25.50;99.90;;;;;;5112351;28;20425;-74
2022/08/07 07:12:07;;;;;;;9.85;8.85;;;25.50;99.90;;;;;;5110852;28;20024;-75
2022/08/07 07:15:02;;;;;;;10.57;9.02;;;25.60;99.90;;;;;;5104771;28;20491;-74
2022/08/07 07:17:36;;;;;;;12.45;8.90;;;25.60;99.90;;;;;;5104227;28;20146;-75
2022/08/07 07:20:09;;;;;;;9.52;8.05;;;25.70;99.90;;;;;;5111914;28;20092;-75
2022/08/07 07:22:35;;;;;;;11.32;9.68;;;25.80;99.90;;;;;;5110134;28;20054;-74
2022/08/07 07:25:03;;;;;;;10.73;9.60;;;25.80;99.90;;;;;;5111870;28;20088;-75
2022/08/07 07:27:33;;;;;;;10.32;8.82;;;25.90;99.90;;;;;;5110830;28;20272;-75
2022/08/07 07:30:02;;;;;;;10.93;8.88;;;25.90;99.90;;;;;;5112059;28;20030;-75
2022/08/07 07:32:32;;;;;;;11.68;10.10;;;26.00;99.90;;;;;;5111889;27;20509;-74
2022/08/07 07:35:00;;;;;;;12.18;9.60;;;26.10;99.90;;;;;;5110527;28;20028;-75
2022/08/07 07:37:28;;;;;;;10.30;9.10;;;26.20;99.90;;;;;;5111818;28;20035;-75
2022/08/07 07:39:58;;;;;;;11.98;9.65;;;26.20;99.90;;;;;;5110478;28;20032;-75
2022/08/07 07:42:25;;;;;;;10.48;9.38;;;26.30;99.90;;;;;;5111929;28;20024;-76
2022/08/07 07:44:54;;;;;;;9.35;8.35;;;26.40;99.90;;;;;;5111499;28;20028;-75
2022/08/07 07:47:21;;;;;;;10.05;8.93;;;26.50;99.90;;;;;;5111662;28;20075;-75
2022/08/07 07:49:50;;;;;;;10.23;8.35;;;26.50;99.90;;;;;;5110280;28;20079;-76
2022/08/07 07:52:17;;;;;;;8.75;7.85;;;26.60;99.90;;;;;;5111854;28;20042;-75
2022/08/07 07:54:45;;;;;;;8.90;7.47;;;26.70;99.90;;;;;;5111480;28;20039;-76
2022/08/07 07:57:13;;;;;;;8.75;7.82;;;26.70;99.90;;;;;;5111516;28;20044;-75
2022/08/07 07:59:41;;;;;;;9.88;7.80;;;26.80;99.90;;;;;;5111532;28;20106;-76
2022/08/07 08:02:10;;;;;;;8.77;7.80;;;26.90;99.90;;;;;;5111202;28;20039;-77
2022/08/07 08:04:36;;;;;;;8.75;7.15;;;27.00;99.90;;;;;;5111408;28;20019;-76
2022/08/07 08:07:03;;;;;;;7.55;6.75;;;27.10;99.90;;;;;;5110015;28;20038;-76
2022/08/07 08:09:30;;;;;;;8.55;6.82;;;27.20;99.90;;;;;;5111475;28;20024;-76
2022/08/07 08:11:58;;;;;;;9.15;7.85;;;27.30;99.90;;;;;;5111607;28;20089;-76
2022/08/07 08:14:23;;;;;;;8.93;7.95;;;27.50;99.90;;;;;;5110137;28;20027;-74
2022/08/07 08:16:50;;;;;;;10.37;7.13;;;27.70;99.90;;;;;;5110041;28;20024;-77
2022/08/07 08:19:23;;;;;;;10.00;7.93;;;27.80;99.90;;;;;;5111416;28;20965;-76
2022/08/07 08:27:32;;;;;;;8.32;7.40;;;28.10;99.90;;;;;;5111718;28;20042;-76
2022/08/07 08:30:09;;;;;;;10.23;8.00;;;28.20;99.90;;;;;;5110036;28;20065;-76
2022/08/07 08:32:48;;;;;;;;;;;28.40;99.90;;;;;;5111840;28;20467;-75
2022/08/07 08:35:22;;;;;;;9.48;8.15;;;28.60;99.90;;;;;;5113961;28;20271;-75
2022/08/07 08:37:49;;;;;;;9.38;8.48;;;28.70;99.90;;;;;;5114154;28;20118;-74
2022/08/07 08:40:23;;;;;;;9.63;8.35;;;28.90;99.90;;;;;;5115256;28;20494;-74
2022/08/07 08:43:01;;;;;;;10.38;8.00;;;29.00;99.90;;;;;;5115057;27;20027;-75
2022/08/07 08:45:54;;;;;;;9.73;8.43;;;29.10;99.90;;;;;;5115105;28;20051;-75
2022/08/07 08:49:03;;;;;;;12.10;8.95;;;29.20;99.90;;;;;;5113792;28;20126;-75
2022/08/07 08:51:40;;;;;;;10.18;9.18;;;29.40;99.90;;;;;;5072098;28;20028;-75
2022/08/07 08:54:19;;;;;;;9.77;7.97;;;29.60;99.90;;;;;;5072248;28;20032;-75
2022/08/07 08:56:49;;;;;;;11.02;8.68;;;29.90;99.90;;;;;;5100845;28;20071;-73
2022/08/07 08:59:27;;;;;;;10.63;8.43;;;30.00;99.90;;;;;;5113484;28;20119;-73
2022/08/07 09:02:07;;;;;;;10.02;8.80;;;30.10;99.90;;;;;;5114758;28;20491;-74
2022/08/07 09:04:53;;;;;;;12.10;8.65;;;30.30;99.90;;;;;;5113174;28;20055;-73
2022/08/07 09:07:27;;;;;;;10.18;8.23;;;30.50;99.90;;;;;;5114551;28;20131;-73
2022/08/07 09:10:32;;;;;;;8.82;7.93;;;30.60;99.90;;;;;;5114454;28;20115;-73
2022/08/07 09:13:32;;;;;;;11.70;7.90;;;30.60;99.90;;;;;;5082420;28;20517;-73
2022/08/07 09:16:09;;;;;;;11.15;8.25;;;30.70;99.90;;;;;;5114907;28;20028;-74
2022/08/07 09:18:48;;;;;;;8.50;7.57;;;30.70;99.90;;;;;;5113883;28;20032;-74
2022/08/07 09:21:35;;;;;;;8.88;7.97;;;30.90;99.90;;;;;;5113751;28;20551;-75
2022/08/07 09:24:13;;;;;;;11.32;8.38;;;31.00;99.90;;;;;;5114624;28;20479;-76
2022/08/07 09:27:00;;;;;;;8.90;7.80;;;31.00;99.90;;;;;;5116041;28;20475;-80
2022/08/07 09:29:31;;;;;;;8.20;7.40;;;30.90;99.90;;;;;;5115334;28;20024;-78
2022/08/07 09:32:43;;;;;;;8.75;7.00;;;30.90;99.90;;;;;;5114415;28;20023;-77
2022/08/07 09:35:24;;;;;;;8.93;7.30;;;30.90;99.90;;;;;;5079407;28;20035;-75
2022/08/07 09:38:06;;;;;;;9.60;7.68;;;30.90;99.90;;;;;;5114592;28;20106;-77
2022/08/07 09:40:50;;;;;;;7.90;7.00;;;30.90;99.90;;;;;;5114234;27;20480;-75
2022/08/07 09:43:27;;;;;;;9.80;7.57;;;30.60;99.90;;;;;;5112814;28;20050;-76
2022/08/07 09:46:31;;;;;;;9.60;8.60;;;30.30;99.90;;;;;;5112471;28;20019;-77
2022/08/07 09:49:11;;;;;;;8.18;6.82;;;29.70;99.90;;;;;;5113875;28;20024;-77
2022/08/07 09:52:03;;;;;;;7.43;6.63;;;29.30;99.90;;;;;;5112653;28;20378;-74
2022/08/07 09:54:43;;;;;;;7.78;6.97;;;29.20;99.90;;;;;;5112469;28;20339;-76
2022/08/07 09:57:24;;;;;;;8.85;6.68;;;29.10;99.90;;;;;;5114169;28;20490;-75
2022/08/07 10:00:10;;;;;;;9.52;7.53;;;29.00;99.90;;;;;;5112637;28;20376;-77
2022/08/07 10:02:51;;;;;;;9.35;7.13;;;28.90;99.90;;;;;;5112964;28;20031;-78
2022/08/07 10:05:51;;;;;;;8.13;7.10;;;29.10;99.90;;;;;;5114785;28;20102;-78
2022/08/07 10:08:42;;;;;;;10.95;7.55;;;29.00;99.90;;;;;;5114856;28;20054;-77
2022/08/07 10:11:20;;;;;;;10.13;7.75;;;29.30;99.90;;;;;;5113736;28;20030;-77
2022/08/07 10:14:21;;;;;;;8.55;7.65;;;29.70;99.90;;;;;;5113549;28;20043;-77
2022/08/07 10:17:22;;;;;;;12.30;8.13;;;30.30;99.90;;;;;;5113232;28;20507;-76
2022/08/07 10:20:14;;;;;;;9.90;7.55;;;30.90;99.90;;;;;;5102584;28;20043;-77
2022/08/07 10:23:23;;;;;;;7.07;6.10;;;31.00;99.90;;;;;;5113898;28;20032;-75
2022/08/07 10:26:26;;;;;;;8.35;6.32;;;30.40;99.90;;;;;;5114016;28;20340;-75
2022/08/07 10:29:10;;;;;;;8.68;6.13;;;29.70;99.90;;;;;;5111685;28;20023;-75
2022/08/07 10:31:58;;;;;;;8.45;7.60;;;29.20;99.90;;;;;;5113228;28;20028;-75
2022/08/07 10:35:02;;;;;;;9.15;7.43;;;28.70;99.90;;;;;;5111775;28;20073;-77
2022/08/07 10:37:52;;;;;;;9.93;7.30;;;28.40;99.90;;;;;;5111586;28;20020;-76
2022/08/07 10:40:27;;;;;;;12.35;8.43;;;28.10;99.90;;;;;;5113366;28;20460;-76
2022/08/07 10:43:24;;;;;;;8.82;7.93;;;28.00;99.90;;;;;;5111611;28;20085;-75
2022/08/07 10:45:58;;;;;;;8.73;5.95;;;27.90;99.90;;;;;;5087683;28;20566;-75
2022/08/07 10:48:40;;;;;;;8.68;5.60;;;27.60;99.90;;;;;;5111280;28;20024;-76
2022/08/07 10:51:37;;;;;;;7.13;6.38;;;27.40;99.90;;;;;;5111571;28;20038;-76
2022/08/07 10:54:12;;;;;;;7.90;5.38;;;27.30;99.90;;;;;;5111274;28;20035;-75
2022/08/07 10:57:01;;;;;;;8.70;6.28;;;27.20;99.90;;;;;;5112095;28;20169;-75
2022/08/07 10:59:58;;;;;;;7.35;5.97;;;27.10;99.90;;;;;;5112800;28;20076;-76
2022/08/07 11:02:30;;;;;;;7.57;5.78;;;27.00;99.90;;;;;;5112764;28;20081;-74
2022/08/07 11:05:26;;;;;;;7.25;5.70;;;26.80;99.90;;;;;;5113148;28;20028;-75
2022/08/07 11:08:10;;;;;;;7.53;5.65;;;26.80;99.90;;;;;;5112915;28;20094;-75
2022/08/07 11:10:54;;;;;;;7.00;5.57;;;26.70;99.90;;;;;;5112684;28;20047;-75
2022/08/07 11:13:41;;;;;;;10.82;5.75;;;26.60;99.90;;;;;;5112675;28;20023;-75
2022/08/07 11:16:08;;;;;;;;;;;26.60;99.90;;;;;;5112682;28;20071;-77
2022/08/07 11:18:42;;;;;;;7.65;5.38;;;26.60;99.90;;;;;;5110900;28;19907;-76
2022/08/07 11:21:38;;;;;;;6.40;5.70;;;26.50;99.90;;;;;;5112416;28;20367;-77
2022/08/07 11:24:33;;;;;;;7.97;5.90;;;26.40;99.90;;;;;;5110828;28;20036;-77
2022/08/07 11:27:17;;;;;;;7.10;6.07;;;26.40;99.90;;;;;;5106874;28;20119;-77
2022/08/07 11:29:51;;;;;;;11.45;7.65;;;26.40;99.90;;;;;;5110935;28;20024;-76
2022/08/07 11:32:27;;;;;;;8.57;7.30;;;26.30;99.90;;;;;;5112154;28;20027;-76
2022/08/07 11:34:57;;;;;;;9.00;7.43;;;26.10;99.90;;;;;;5110721;28;20039;-75
2022/08/07 11:37:41;;;;;;;8.85;7.47;;;26.10;99.90;;;;;;5110727;28;20023;-76
2022/08/07 11:40:20;;;;;;;9.20;7.18;;;26.00;99.90;;;;;;5112143;28;20027;-76
2022/08/07 11:42:59;;;;;;;9.55;7.63;;;25.90;99.90;;;;;;5112179;28;20023;-76
2022/08/07 11:45:50;;;;;;;12.05;8.45;;;25.90;99.90;;;;;;5111841;28;20093;-76
2022/08/07 11:48:26;;;;;;;9.65;7.45;;;25.90;99.90;;;;;;5112265;28;20023;-76
2022/08/07 11:51:06;;;;;;;10.40;8.00;;;25.80;99.90;;;;;;5110666;28;20083;-75
2022/08/07 11:53:54;;;;;;;10.80;7.47;;;25.80;99.90;;;;;;5111971;28;20060;-75
2022/08/07 11:56:44;;;;;;;9.95;7.15;;;25.70;99.90;;;;;;5110192;28;20147;-76
2022/08/07 11:59:44;;;;;;;9.68;7.40;;;25.70;99.90;;;;;;5109725;28;20567;-77
2022/08/07 12:02:25;;;;;;;9.85;8.38;;;25.60;99.90;;;;;;5110344;28;20058;-76
2022/08/07 12:05:24;;;;;;;9.57;8.00;;;25.60;99.90;;;;;;5111477;28;20023;-75
2022/08/07 12:08:11;;;;;;;11.27;8.85;;;25.60;99.90;;;;;;5111494;28;20036;-76
2022/08/07 12:10:46;;;;;;;;;;;25.40;99.90;;;;;;5110552;28;20016;-75
2022/08/07 12:13:22;;;;;;;11.77;9.05;;;25.30;99.90;;;;;;5109775;28;19911;-74
2022/08/07 12:15:57;;;;;;;12.05;8.95;;;25.10;99.90;;;;;;5111631;28;20098;-75
2022/08/07 12:18:40;;;;;;;17.60;8.88;;;24.90;99.90;;;;;;5109896;28;20483;-75
2022/08/07 12:21:33;;;;;;;11.98;9.05;;;24.70;99.90;;;;;;5111297;28;20023;-76
2022/08/07 12:24:12;;;;;;;13.52;9.85;;;24.60;99.90;;;;;;5109741;28;20039;-75
2022/08/07 12:26:53;;;;;;;12.38;9.13;;;24.40;99.90;;;;;;5109767;28;20102;-74
2022/08/07 12:29:41;;;;;;;9.82;8.10;;;24.20;99.90;;;;;;5109615;28;20016;-76
2022/08/07 12:32:16;;;;;;;;;;;24.10;99.90;;;;;;5110279;28;20498;-75
2022/08/07 12:34:44;;;;;;;10.63;8.73;;;23.90;99.90;;;;;;5111001;28;20278;-75
2022/08/07 12:37:11;;;;;;;10.48;8.70;;;23.80;99.90;;;;;;5111026;28;20115;-75
2022/08/07 12:39:40;;;;;;;12.93;10.00;;;23.70;99.90;;;;;;5110905;28;20035;-75
2022/08/07 12:42:08;;;;;;;12.15;10.15;;;23.70;99.90;;;;;;5109513;28;20039;-75
2022/08/07 12:44:37;;;;;;;13.82;10.93;;;23.70;99.90;;;;;;5109350;28;20020;-75
2022/08/07 12:47:05;;;;;;;15.52;10.82;;;23.60;99.90;;;;;;5109532;28;20035;-74
2022/08/07 12:49:38;;;;;;;16.95;11.32;;;23.40;99.90;;;;;;5109809;28;20020;-74
2022/08/07 12:52:12;;;;;;;13.77;10.63;;;23.20;99.90;;;;;;5110913;28;20031;-74
2022/08/07 12:54:59;;;;;;;11.48;10.10;;;23.00;99.90;;;;;;5110636;28;20040;-74
2022/08/07 12:57:31;;;;;;;11.48;9.52;;;22.80;99.90;;;;;;5110740;28;20364;-75
2022/08/07 12:59:59;;;;;;;10.93;8.73;;;22.60;99.90;;;;;;5109540;28;20024;-74
2022/08/07 13:03:16;;;;;;;12.55;9.20;;;22.60;99.90;;;;;;5109316;28;20032;-74
2022/08/07 13:06:19;;;;;;;11.57;9.25;;;22.40;99.90;;;;;;5075782;28;20031;-74
2022/08/07 13:08:51;;;;;;;12.32;9.38;;;22.40;99.90;;;;;;5111286;28;20102;-74
2022/08/07 13:11:40;;;;;;;12.50;9.43;;;22.30;99.90;;;;;;5110790;28;20026;-74
2022/08/07 13:14:22;;;;;;;12.68;9.98;;;22.40;99.90;;;;;;5109275;28;20035;-74
2022/08/07 13:17:03;;;;;;;13.68;9.95;;;22.30;99.90;;;;;;5109424;28;20023;-74